Wood, Pennsylvania
Current Conditions -  °F | °C
As of 9:11 AM on Saturday 01 Nov 2014 (Local Time) from KAOO Reporting Station
Light Rain Light Rain  
Wind Chill: 34°   Ceiling: 2600
Heat Index: 41°   Visibility: 10mi
Dew Point: 37°   Wind: 12mph
Humidity: 86%   Direction: 20°NNE
Pressure: 29.91"   Gusts: NA
Location:  40.17°N, 78.14°W
Report Text: KAOO 011311Z AUTO 02010KT 10SM -RA BKN026 OVC050 05/03 A2991 RMK AO2 P0000 T00500028
Loading
Personal Weather Stations






























Interactive Weather Map
Tropical Storm Tracking
New forecast layout! Learn more

10-Day Weather Forecast

Advertisements
Track Severe Weather on mobile